Terminal Aerodrome Forecast
Issued by NWS

Home | Current Version | Previous Version | Text Only | Print | Product List | Glossary On
Versions: 1 2 3 4 5 6 7 8 9 10 11 12 13 14 15 16 17 18 19 20 21
777
FTUS46 KSEW 281126
TAFOLM
TAF
KOLM 281126Z 2812/2912 19010KT P6SM -RA SCT020 OVC035
     FM281800 21013G23KT P6SM -RA SCT020 BKN035 OVC050
     FM290000 21010KT 6SM -RA BR SCT018 BKN025 OVC040
     FM290600 19008KT 4SM -RA BR SCT007 OVC018=

USA.gov is the U.S. government's official web portal to all federal, state and local government web resources and services.